createdAt,value
2023-05-06T00:00:31.392Z,100307.03
2023-05-06T00:05:32.796Z,100298.13
2023-05-06T00:10:34.465Z,100299.16
2023-05-06T00:15:36.485Z,100309.88
2023-05-06T00:20:37.871Z,100303.66
2023-05-06T00:25:39.271Z,100298.53
2023-05-06T00:30:40.674Z,100297.88
2023-05-06T00:35:42.033Z,100296.84
2023-05-06T00:40:43.378Z,100291.88
2023-05-06T00:45:44.901Z,100293.34
2023-05-06T00:50:46.383Z,100298.16
2023-05-06T00:55:49.736Z,100290.47
2023-05-06T01:00:52.194Z,100294.66
2023-05-06T01:06:15.857Z,100294.88
2023-05-06T01:11:24.195Z,100287.16
2023-05-06T01:16:29.391Z,100282.81
2023-05-06T01:21:34.700Z,100289.03
2023-05-06T01:26:36.103Z,100280.13
2023-05-06T01:31:45.606Z,100281.16
2023-05-06T01:37:17.910Z,100288.69
2023-05-06T01:42:21.645Z,100290.97
2023-05-06T01:47:24.098Z,100289.72
2023-05-06T01:52:26.447Z,100296.38
2023-05-06T01:57:28.505Z,100297.00
2023-05-06T02:02:31.321Z,100302.63
2023-05-06T02:07:32.687Z,100301.59
2023-05-06T02:12:34.287Z,100312.81
2023-05-06T02:17:37.173Z,100311.13
2023-05-06T02:22:38.553Z,100322.34
2023-05-06T02:27:40.003Z,100320.25
2023-05-06T02:32:41.632Z,100322.09
2023-05-06T02:37:42.997Z,100330.84
2023-05-06T02:42:44.501Z,100326.88
2023-05-06T02:47:45.934Z,100331.38
2023-05-06T02:52:47.271Z,100329.91
2023-05-06T02:57:48.741Z,100334.44
2023-05-06T03:02:50.237Z,100344.00
2023-05-06T03:07:51.662Z,100342.28
2023-05-06T03:12:53.102Z,100339.56
2023-05-06T03:17:54.549Z,100344.06
2023-05-06T03:22:56.355Z,100342.97
2023-05-06T03:27:57.702Z,100337.53
2023-05-06T03:33:02.029Z,100346.47
2023-05-06T03:38:03.474Z,100339.16
2023-05-06T03:43:04.905Z,100335.56
2023-05-06T03:48:06.416Z,100336.59
2023-05-06T03:53:08.131Z,100349.88
2023-05-06T03:58:09.539Z,100355.28
2023-05-06T04:03:11.180Z,100349.28
2023-05-06T04:08:12.571Z,100341.16
2023-05-06T04:13:14.067Z,100356.09
2023-05-06T04:18:19.201Z,100354.19
2023-05-06T04:23:20.997Z,100355.63
2023-05-06T04:28:22.374Z,100357.88
2023-05-06T04:33:24.991Z,100354.19
2023-05-06T04:38:30.381Z,100361.91
2023-05-06T04:43:32.680Z,100363.63
2023-05-06T04:48:34.098Z,100367.41
2023-05-06T04:53:35.702Z,100373.06
2023-05-06T04:58:37.086Z,100372.28
2023-05-06T05:03:38.574Z,100372.53
2023-05-06T05:08:39.995Z,100380.06
2023-05-06T05:13:41.320Z,100385.75
2023-05-06T05:18:42.895Z,100379.59
2023-05-06T05:23:44.233Z,100386.72
2023-05-06T05:28:45.602Z,100394.75
2023-05-06T05:33:47.062Z,100387.28
2023-05-06T05:38:48.845Z,100388.81
2023-05-06T05:43:50.184Z,100394.88
2023-05-06T05:48:51.564Z,100386.16
2023-05-06T05:53:53.250Z,100389.53
2023-05-06T05:58:54.624Z,100397.03
2023-05-06T06:03:56.433Z,100401.88
2023-05-06T06:08:58.842Z,100399.16
2023-05-06T06:14:00.270Z,100402.91
2023-05-06T06:19:01.765Z,100411.03
2023-05-06T06:24:03.333Z,100410.97
2023-05-06T06:29:04.687Z,100415.13
2023-05-06T06:34:06.513Z,100413.63
2023-05-06T06:39:08.382Z,100424.66
2023-05-06T06:44:09.701Z,100414.59
2023-05-06T06:49:11.118Z,100418.06
2023-05-06T06:54:12.480Z,100413.16
2023-05-06T06:59:14.006Z,100421.09
2023-05-06T07:04:15.388Z,100417.88
2023-05-06T07:09:16.941Z,100413.38
2023-05-06T07:14:18.271Z,100426.00
2023-05-06T07:19:19.633Z,100417.84
2023-05-06T07:24:21.102Z,100419.94
2023-05-06T07:29:22.476Z,100421.81
2023-05-06T07:34:23.861Z,100422.63
2023-05-06T07:39:25.227Z,100427.91
2023-05-06T07:44:26.622Z,100435.50
2023-05-06T07:49:30.447Z,100438.03
2023-05-06T07:54:31.948Z,100436.53
2023-05-06T07:59:33.365Z,100439.66
2023-05-06T08:04:34.866Z,100438.19
2023-05-06T08:09:36.408Z,100437.84
2023-05-06T08:14:37.821Z,100432.63
2023-05-06T08:19:39.166Z,100435.97
2023-05-06T08:24:40.570Z,100442.84
2023-05-06T08:29:41.902Z,100441.28
2023-05-06T08:34:43.307Z,100435.13
2023-05-06T08:39:45.664Z,100447.81
2023-05-06T08:44:47.413Z,100444.56
2023-05-06T08:49:49.168Z,100449.53
2023-05-06T08:54:54.448Z,100436.72
2023-05-06T08:59:56.686Z,100443.00
2023-05-06T09:04:59.520Z,100437.88
2023-05-06T09:10:05.502Z,100435.41
2023-05-06T09:15:09.724Z,100440.03
2023-05-06T09:20:12.484Z,100437.63
2023-05-06T09:25:14.114Z,100439.34
2023-05-06T09:30:15.659Z,100435.81
2023-05-06T09:35:17.381Z,100431.78
2023-05-06T09:40:18.750Z,100433.28
2023-05-06T09:45:21.400Z,100426.09
2023-05-06T09:50:23.537Z,100423.91
2023-05-06T09:55:27.122Z,100418.66
2023-05-06T10:00:30.272Z,100409.53
2023-05-06T10:05:33.434Z,100403.75
2023-05-06T10:10:35.103Z,100412.69
2023-05-06T10:15:38.450Z,100403.38
2023-05-06T10:20:42.114Z,100401.91
2023-05-06T10:25:45.530Z,100392.88
2023-05-06T10:30:48.269Z,100397.22
2023-05-06T10:35:59.429Z,100383.25
2023-05-06T10:41:01.373Z,100389.47
2023-05-06T10:46:09.631Z,100380.06
2023-05-06T10:51:13.701Z,100376.22
2023-05-06T10:56:15.241Z,100366.63
2023-05-06T11:01:16.816Z,100369.78
2023-05-06T11:06:48.108Z,100363.41
2023-05-06T11:12:01.801Z,100364.56
2023-05-06T11:17:28.669Z,100356.81
2023-05-06T11:22:40.108Z,100351.47
2023-05-06T11:27:41.831Z,100351.28
2023-05-06T11:32:43.837Z,100361.56
2023-05-06T11:37:45.260Z,100356.88
2023-05-06T11:42:46.647Z,100351.94
2023-05-06T11:47:48.066Z,100344.63
2023-05-06T11:52:49.488Z,100346.69
2023-05-06T11:57:53.087Z,100331.72
2023-05-06T12:02:56.316Z,100334.72
2023-05-06T12:07:57.868Z,100336.22
2023-05-06T12:12:59.522Z,100337.78
2023-05-06T12:18:02.146Z,100343.03
2023-05-06T12:23:13.508Z,100336.03
2023-05-06T12:28:19.124Z,100337.41
2023-05-06T12:33:20.762Z,100344.00
2023-05-06T12:38:22.283Z,100337.56
2023-05-06T12:43:32.691Z,100326.25
2023-05-06T12:48:34.705Z,100338.31
2023-05-06T12:53:36.225Z,100334.19
2023-05-06T12:58:38.528Z,100318.50
2023-05-06T13:03:40.947Z,100327.78
2023-05-06T13:08:42.535Z,100313.34
2023-05-06T13:13:43.899Z,100314.28
2023-05-06T13:18:45.251Z,100314.88
2023-05-06T13:23:47.775Z,100313.66
2023-05-06T13:28:49.151Z,100311.41
2023-05-06T13:33:50.558Z,100298.91
2023-05-06T13:38:51.954Z,100296.41
2023-05-06T13:43:53.361Z,100290.28
2023-05-06T13:48:54.759Z,100287.88
2023-05-06T13:53:56.170Z,100291.28
2023-05-06T13:58:57.509Z,100269.91
2023-05-06T14:03:58.879Z,100264.88
2023-05-06T14:09:00.334Z,100263.72
2023-05-06T14:14:02.329Z,100262.59
2023-05-06T14:19:04.633Z,100251.72
2023-05-06T14:24:07.740Z,100240.06
2023-05-06T14:29:09.407Z,100238.38
2023-05-06T14:34:11.309Z,100239.34
2023-05-06T14:39:13.113Z,100233.25
2023-05-06T14:44:15.186Z,100232.94
2023-05-06T14:49:16.602Z,100233.25
2023-05-06T14:54:17.967Z,100227.63
2023-05-06T14:59:19.308Z,100228.97
2023-05-06T15:04:20.662Z,100236.91
2023-05-06T15:09:22.139Z,100232.41
2023-05-06T15:14:23.540Z,100228.69
2023-05-06T15:19:24.924Z,100230.59
2023-05-06T15:24:26.573Z,100224.88
2023-05-06T15:29:28.473Z,100234.19
2023-05-06T15:34:29.821Z,100243.50
2023-05-06T15:39:36.722Z,100240.19
2023-05-06T15:44:38.180Z,100243.38
2023-05-06T15:54:49.396Z,100249.81
2023-05-06T15:59:51.421Z,100253.13
2023-05-06T16:04:52.971Z,100255.84
2023-05-06T16:09:54.550Z,100249.50
2023-05-06T16:14:55.905Z,100249.22
2023-05-06T16:19:57.314Z,100248.13
2023-05-06T16:24:58.651Z,100248.34
2023-05-06T16:30:00.197Z,100236.50
2023-05-06T16:35:01.592Z,100235.13
2023-05-06T16:40:04.328Z,100228.22
2023-05-06T16:45:07.051Z,100224.34
2023-05-06T16:50:08.725Z,100224.75
2023-05-06T16:55:10.725Z,100226.50
2023-05-06T17:00:12.932Z,100219.25
2023-05-06T17:05:15.431Z,100215.72
2023-05-06T17:10:16.899Z,100217.63
2023-05-06T17:15:18.381Z,100215.16
2023-05-06T17:20:20.027Z,100208.28
2023-05-06T17:25:21.451Z,100211.56
2023-05-06T17:30:22.906Z,100215.00
2023-05-06T17:35:24.365Z,100223.97
2023-05-06T17:40:25.725Z,100214.28
2023-05-06T17:45:28.286Z,100222.38
2023-05-06T17:50:29.934Z,100217.03
2023-05-06T17:55:31.893Z,100225.13
2023-05-06T18:00:33.479Z,100222.53
2023-05-06T18:05:34.830Z,100222.50
2023-05-06T18:10:36.287Z,100228.41
2023-05-06T18:15:37.625Z,100233.63
2023-05-06T18:20:39.790Z,100233.13
2023-05-06T18:25:41.219Z,100242.16
2023-05-06T18:30:42.560Z,100241.91
2023-05-06T18:35:43.907Z,100241.53
2023-05-06T18:40:47.208Z,100232.13
2023-05-06T18:45:48.684Z,100239.47
2023-05-06T18:50:50.885Z,100240.63
2023-05-06T18:55:52.281Z,100249.91
2023-05-06T19:00:55.285Z,100257.72
2023-05-06T19:05:58.885Z,100257.66
2023-05-06T19:11:01.115Z,100263.38
2023-05-06T19:16:02.532Z,100267.22
2023-05-06T19:21:04.431Z,100270.56
2023-05-06T19:26:06.795Z,100271.81
2023-05-06T19:31:10.395Z,100267.00
2023-05-06T19:36:11.844Z,100277.84
2023-05-06T19:41:13.445Z,100277.84
2023-05-06T19:46:15.961Z,100281.16
2023-05-06T19:51:17.448Z,100289.19
2023-05-06T19:56:19.579Z,100288.44
2023-05-06T20:01:23.604Z,100300.50
2023-05-06T20:06:25.002Z,100287.00
2023-05-06T20:11:26.447Z,100297.72
2023-05-06T20:16:27.846Z,100302.38
2023-05-06T20:21:29.277Z,100297.34
2023-05-06T20:26:30.724Z,100306.84
2023-05-06T20:31:32.180Z,100303.09
2023-05-06T20:36:34.925Z,100303.09
2023-05-06T20:41:36.342Z,100295.94
2023-05-06T20:46:37.696Z,100303.06
2023-05-06T20:51:39.034Z,100296.56
2023-05-06T20:56:40.518Z,100294.41
2023-05-06T21:01:41.956Z,100292.28
2023-05-06T21:06:43.299Z,100288.84
2023-05-06T21:11:44.880Z,100289.88
2023-05-06T21:16:46.209Z,100293.47
2023-05-06T21:21:47.590Z,100305.66
2023-05-06T21:26:48.941Z,100308.88
2023-05-06T21:31:50.269Z,100308.75
2023-05-06T21:36:51.643Z,100305.66
2023-05-06T21:41:52.993Z,100308.97
2023-05-06T21:46:54.463Z,100302.34
2023-05-06T21:51:56.154Z,100302.00
2023-05-06T21:56:57.485Z,100291.22
2023-05-06T22:01:58.814Z,100292.41
2023-05-06T22:07:00.296Z,100298.56
2023-05-06T22:12:06.414Z,100294.31
2023-05-06T22:17:07.955Z,100289.22
2023-05-06T22:22:09.349Z,100281.84
2023-05-06T22:27:11.176Z,100284.38
2023-05-06T22:32:12.556Z,100281.50
2023-05-06T22:37:13.975Z,100278.41
2023-05-06T22:42:15.576Z,100278.16
2023-05-06T22:47:16.956Z,100275.09
2023-05-06T22:52:19.322Z,100271.31
2023-05-06T22:57:23.118Z,100277.22
2023-05-06T23:02:24.563Z,100271.28
2023-05-06T23:07:25.934Z,100272.91
2023-05-06T23:12:32.166Z,100276.97
2023-05-06T23:17:33.569Z,100284.56
2023-05-06T23:22:35.228Z,100284.78
2023-05-06T23:27:36.985Z,100289.78
2023-05-06T23:32:38.639Z,100288.22
2023-05-06T23:37:40.060Z,100291.28
2023-05-06T23:42:41.502Z,100292.91
2023-05-06T23:47:42.862Z,100291.84
2023-05-06T23:52:44.272Z,100284.38
2023-05-06T23:57:45.739Z,100286.16
